createdAt,value
2023-03-10T00:01:29.250Z,6.00
2023-03-10T00:04:00.263Z,6.55
2023-03-10T00:06:32.979Z,4.07
2023-03-10T00:09:01.615Z,5.25
2023-03-10T00:11:29.336Z,4.93
2023-03-10T00:13:57.394Z,4.65
2023-03-10T00:16:28.732Z,3.17
2023-03-10T00:18:57.262Z,4.03
2023-03-10T00:21:27.633Z,4.35
2023-03-10T00:23:56.581Z,4.30
2023-03-10T00:26:27.757Z,4.13
2023-03-10T00:28:56.733Z,4.35
2023-03-10T00:31:26.911Z,4.97
2023-03-10T00:33:57.250Z,4.55
2023-03-10T00:36:29.439Z,4.20
2023-03-10T00:39:01.376Z,5.88
2023-03-10T00:41:31.513Z,3.80
2023-03-10T00:44:02.689Z,4.87
2023-03-10T00:46:33.662Z,4.15
2023-03-10T00:49:01.996Z,3.70
2023-03-10T00:51:30.105Z,3.58
2023-03-10T00:53:59.873Z,7.53
2023-03-10T00:56:28.853Z,4.78
2023-03-10T00:59:00.731Z,5.47
2023-03-10T01:01:34.456Z,4.65
2023-03-10T01:04:06.298Z,3.72
2023-03-10T01:06:35.954Z,4.30
2023-03-10T01:09:04.465Z,4.68
2023-03-10T01:11:33.021Z,4.87
2023-03-10T01:14:03.405Z,4.55
2023-03-10T01:16:31.609Z,4.28
2023-03-10T01:18:59.830Z,4.60
2023-03-10T01:21:34.158Z,2.80
2023-03-10T01:24:03.195Z,4.13
2023-03-10T01:26:31.357Z,5.03
2023-03-10T01:28:59.334Z,3.80
2023-03-10T01:31:27.279Z,4.05
2023-03-10T01:33:55.733Z,3.58
2023-03-10T01:36:27.512Z,4.27
2023-03-10T01:38:57.625Z,5.03
2023-03-10T01:41:26.025Z,3.40
2023-03-10T01:43:56.214Z,4.28
2023-03-10T01:46:42.661Z,3.88
2023-03-10T01:49:25.073Z,3.57
2023-03-10T01:52:02.118Z,3.85
2023-03-10T01:54:44.828Z,6.32
2023-03-10T01:57:15.032Z,5.03
2023-03-10T01:59:43.720Z,3.75
2023-03-10T02:02:12.668Z,5.60
2023-03-10T02:04:48.864Z,4.30
2023-03-10T02:07:27.178Z,5.18
2023-03-10T02:09:56.795Z,4.90
2023-03-10T02:12:24.844Z,4.05
2023-03-10T02:14:54.408Z,6.40
2023-03-10T02:17:24.871Z,6.85
2023-03-10T02:19:58.843Z,5.32
2023-03-10T02:22:28.024Z,4.15
2023-03-10T02:25:14.431Z,4.97
2023-03-10T02:27:43.576Z,7.67
2023-03-10T02:30:13.729Z,5.80
2023-03-10T02:32:47.688Z,4.50
2023-03-10T02:35:16.517Z,4.82
2023-03-10T02:37:53.980Z,4.35
2023-03-10T02:40:49.757Z,6.60
2023-03-10T02:43:33.386Z,5.30
2023-03-10T02:46:17.438Z,8.63
2023-03-10T02:48:47.353Z,3.85
2023-03-10T02:51:25.251Z,5.65
2023-03-10T02:53:54.671Z,5.30
2023-03-10T02:56:24.161Z,5.78
2023-03-10T02:58:53.966Z,4.35
2023-03-10T03:01:22.360Z,6.65
2023-03-10T03:03:50.353Z,4.95
2023-03-10T03:06:19.300Z,7.27
2023-03-10T03:08:48.020Z,4.57
2023-03-10T03:11:19.103Z,5.00
2023-03-10T03:13:48.179Z,4.05
2023-03-10T03:16:16.978Z,5.18
2023-03-10T03:18:48.841Z,5.60
2023-03-10T03:21:21.882Z,7.15
2023-03-10T03:23:50.333Z,6.35
2023-03-10T03:26:27.323Z,8.52
2023-03-10T03:29:12.586Z,7.47
2023-03-10T03:31:42.191Z,4.50
2023-03-10T03:34:16.354Z,4.88
2023-03-10T03:36:47.640Z,4.20
2023-03-10T03:39:21.082Z,6.05
2023-03-10T03:41:55.462Z,7.13
2023-03-10T03:44:23.460Z,4.57
2023-03-10T03:46:52.588Z,4.65
2023-03-10T03:49:22.666Z,5.13
2023-03-10T03:51:51.241Z,5.13
2023-03-10T03:54:20.341Z,4.47
2023-03-10T03:56:48.742Z,3.93
2023-03-10T03:59:17.758Z,3.28
2023-03-10T04:01:46.160Z,5.38
2023-03-10T04:04:15.209Z,7.03
2023-03-10T04:06:43.467Z,6.22
2023-03-10T04:09:14.578Z,5.93
2023-03-10T04:11:42.965Z,4.65
2023-03-10T04:14:11.034Z,5.57
2023-03-10T04:16:39.766Z,6.18
2023-03-10T04:19:08.399Z,5.10
2023-03-10T04:21:42.112Z,6.90
2023-03-10T04:24:10.981Z,6.28
2023-03-10T04:26:42.509Z,5.28
2023-03-10T04:29:11.598Z,6.65
2023-03-10T04:31:41.810Z,6.53
2023-03-10T04:34:12.371Z,5.23
2023-03-10T04:36:41.382Z,5.03
2023-03-10T04:39:10.383Z,9.43
2023-03-10T04:41:39.080Z,4.07
2023-03-10T04:44:12.782Z,6.95
2023-03-10T04:46:46.910Z,6.13
2023-03-10T04:49:15.976Z,8.05
2023-03-10T04:51:46.627Z,5.20
2023-03-10T04:54:16.469Z,6.47
2023-03-10T04:56:48.148Z,7.15
2023-03-10T04:59:16.754Z,7.63
2023-03-10T05:01:46.344Z,7.50
2023-03-10T05:04:16.925Z,6.97
2023-03-10T05:06:46.942Z,8.10
2023-03-10T05:09:25.811Z,10.55
2023-03-10T05:11:57.178Z,7.63
2023-03-10T05:14:26.701Z,9.82
2023-03-10T05:16:55.143Z,10.32
2023-03-10T05:19:23.276Z,7.78
2023-03-10T05:21:54.395Z,10.80
2023-03-10T05:24:22.931Z,8.73
2023-03-10T05:26:51.420Z,9.60
2023-03-10T05:29:21.599Z,8.13
2023-03-10T05:31:54.708Z,8.70
2023-03-10T05:34:29.938Z,13.45
2023-03-10T05:37:01.304Z,10.53
2023-03-10T05:39:30.949Z,11.43
2023-03-10T05:42:02.824Z,11.32
2023-03-10T05:44:34.892Z,10.35
2023-03-10T05:47:06.561Z,8.30
2023-03-10T05:49:38.512Z,8.03
2023-03-10T05:52:08.393Z,9.65
2023-03-10T05:54:38.059Z,10.93
2023-03-10T05:57:07.737Z,14.27
2023-03-10T05:59:38.109Z,9.88
2023-03-10T06:02:06.296Z,11.03
2023-03-10T06:04:34.379Z,12.55
2023-03-10T06:07:03.202Z,11.73
2023-03-10T06:09:32.766Z,10.02
2023-03-10T06:12:00.786Z,9.23
2023-03-10T06:14:28.750Z,11.10
2023-03-10T06:16:57.824Z,11.65
2023-03-10T06:19:26.781Z,11.63
2023-03-10T06:21:54.867Z,9.95
2023-03-10T06:24:22.622Z,10.07
2023-03-10T06:26:50.623Z,14.33
2023-03-10T06:29:18.593Z,12.70
2023-03-10T06:31:46.651Z,7.60
2023-03-10T06:34:14.760Z,12.20
2023-03-10T06:36:44.129Z,9.20
2023-03-10T06:39:11.854Z,9.60
2023-03-10T06:41:39.920Z,7.63
2023-03-10T06:44:07.907Z,11.73
2023-03-10T06:46:36.107Z,13.23
2023-03-10T06:49:03.779Z,13.02
2023-03-10T06:51:32.107Z,13.67
2023-03-10T06:54:00.404Z,13.35
2023-03-10T06:56:28.670Z,13.43
2023-03-10T06:58:56.650Z,14.52
2023-03-10T07:01:36.155Z,11.60
2023-03-10T07:04:04.661Z,10.10
2023-03-10T07:06:32.721Z,11.48
2023-03-10T07:09:01.286Z,8.43
2023-03-10T07:11:29.261Z,5.68
2023-03-10T07:13:57.713Z,8.38
2023-03-10T07:16:25.660Z,9.93
2023-03-10T07:18:53.773Z,9.65
2023-03-10T07:21:22.169Z,9.27
2023-03-10T07:23:50.793Z,13.07
2023-03-10T07:26:19.305Z,9.75
2023-03-10T07:28:47.464Z,9.63
2023-03-10T07:31:17.255Z,13.85
2023-03-10T07:33:45.547Z,11.48
2023-03-10T07:36:15.992Z,10.50
2023-03-10T07:38:44.364Z,8.65
2023-03-10T07:41:16.249Z,9.73
2023-03-10T07:43:44.251Z,9.55
2023-03-10T07:46:14.776Z,10.77
2023-03-10T07:48:43.143Z,8.02
2023-03-10T07:51:11.262Z,10.35
2023-03-10T07:53:39.789Z,10.67
2023-03-10T07:56:09.601Z,8.88
2023-03-10T07:58:38.521Z,9.27
2023-03-10T08:01:07.613Z,10.68
2023-03-10T08:03:36.105Z,9.07
2023-03-10T08:06:05.871Z,10.03
2023-03-10T08:08:34.147Z,8.13
2023-03-10T08:11:07.616Z,10.07
2023-03-10T08:13:36.589Z,10.55
2023-03-10T08:16:04.644Z,10.60
2023-03-10T08:18:33.028Z,10.97
2023-03-10T08:21:05.609Z,11.68
2023-03-10T08:23:34.696Z,11.40
2023-03-10T08:26:08.579Z,14.25
2023-03-10T08:28:39.028Z,9.90
2023-03-10T08:31:10.765Z,10.60
2023-03-10T08:33:39.810Z,13.50
2023-03-10T08:36:09.888Z,13.32
2023-03-10T08:38:38.546Z,13.38
2023-03-10T08:41:19.133Z,15.20
2023-03-10T08:43:49.492Z,11.97
2023-03-10T08:46:18.651Z,10.48
2023-03-10T08:48:47.019Z,10.07
2023-03-10T08:51:16.761Z,13.20
2023-03-10T08:53:47.467Z,18.83
2023-03-10T08:56:17.426Z,12.17
2023-03-10T08:58:45.600Z,11.75
2023-03-10T09:01:17.658Z,12.10
2023-03-10T09:03:46.427Z,11.80
2023-03-10T09:06:14.876Z,12.60
2023-03-10T09:08:43.470Z,15.13
2023-03-10T09:11:17.175Z,10.40
2023-03-10T09:13:45.676Z,11.98
2023-03-10T09:16:13.942Z,9.35
2023-03-10T09:18:42.357Z,11.57
2023-03-10T09:21:14.938Z,9.77
2023-03-10T09:23:45.648Z,9.48
2023-03-10T09:26:13.868Z,10.48
2023-03-10T09:28:42.009Z,14.90
2023-03-10T09:31:15.996Z,10.95
2023-03-10T09:33:45.570Z,9.90
2023-03-10T09:36:14.113Z,10.35
2023-03-10T09:38:42.490Z,9.63
2023-03-10T09:41:16.640Z,12.45
2023-03-10T09:44:02.690Z,9.25
2023-03-10T09:46:56.996Z,9.37
2023-03-10T09:49:43.058Z,6.80
2023-03-10T09:52:57.901Z,11.35
2023-03-10T09:55:30.596Z,8.95
2023-03-10T09:57:59.077Z,11.73
2023-03-10T10:00:35.912Z,7.43
2023-03-10T10:03:25.495Z,7.63
2023-03-10T10:05:55.587Z,8.25
2023-03-10T10:09:01.884Z,10.18
2023-03-10T10:11:33.596Z,10.95
2023-03-10T10:14:29.824Z,6.77
2023-03-10T10:18:05.354Z,7.18
2023-03-10T10:21:06.069Z,8.32
2023-03-10T10:23:52.197Z,5.22
2023-03-10T10:26:25.344Z,8.40
2023-03-10T10:29:12.136Z,6.50
2023-03-10T10:31:40.586Z,6.20
2023-03-10T10:34:28.594Z,6.15
2023-03-10T10:36:57.417Z,7.95
2023-03-10T10:39:44.057Z,8.80
2023-03-10T10:42:25.076Z,9.53
2023-03-10T10:44:58.892Z,10.50
2023-03-10T10:47:28.761Z,9.45
2023-03-10T10:50:18.366Z,6.22
2023-03-10T10:52:50.246Z,7.25
2023-03-10T10:55:35.402Z,6.60
2023-03-10T10:58:11.209Z,5.95
2023-03-10T11:00:39.785Z,7.28
2023-03-10T11:03:37.570Z,9.05
2023-03-10T11:06:32.560Z,6.20
2023-03-10T11:09:12.674Z,6.60
2023-03-10T11:11:49.434Z,7.20
2023-03-10T11:14:45.353Z,7.28
2023-03-10T11:17:24.126Z,7.10
2023-03-10T11:20:06.497Z,7.07
2023-03-10T11:22:42.957Z,9.67
2023-03-10T11:25:24.174Z,6.00
2023-03-10T11:28:20.932Z,9.57
2023-03-10T11:31:24.957Z,10.13
2023-03-10T11:34:10.515Z,8.50
2023-03-10T11:37:15.457Z,8.93
2023-03-10T11:39:45.958Z,9.63
2023-03-10T11:42:26.256Z,12.98
2023-03-10T11:45:20.148Z,9.38
2023-03-10T11:47:49.036Z,10.65
2023-03-10T11:50:51.667Z,10.47
2023-03-10T11:53:38.182Z,8.65
2023-03-10T11:56:09.922Z,6.03
2023-03-10T11:58:44.506Z,6.03
2023-03-10T12:01:31.085Z,7.13
2023-03-10T12:04:19.362Z,8.60
2023-03-10T12:07:10.232Z,7.95
2023-03-10T12:09:54.772Z,8.65
2023-03-10T12:12:37.718Z,5.82
2023-03-10T12:15:17.429Z,5.55
2023-03-10T12:17:46.249Z,8.50
2023-03-10T12:20:13.754Z,7.85
2023-03-10T12:22:42.632Z,11.82
2023-03-10T12:25:28.739Z,6.05
2023-03-10T12:28:18.038Z,7.18
2023-03-10T12:31:02.791Z,11.33
2023-03-10T12:33:40.089Z,11.27
2023-03-10T12:36:34.158Z,9.60
2023-03-10T12:39:20.706Z,7.50
2023-03-10T12:41:53.963Z,8.32
2023-03-10T12:44:56.230Z,9.33
2023-03-10T12:47:37.436Z,7.95
2023-03-10T12:50:50.288Z,7.30
2023-03-10T12:53:34.633Z,8.70
2023-03-10T12:56:14.486Z,7.82
2023-03-10T12:58:46.819Z,10.13
2023-03-10T13:01:21.120Z,8.43
2023-03-10T13:03:56.165Z,10.25
2023-03-10T13:06:39.754Z,12.68
2023-03-10T13:09:48.469Z,11.65
2023-03-10T13:12:31.390Z,10.07
2023-03-10T13:15:01.756Z,12.60
2023-03-10T13:17:32.099Z,11.88
2023-03-10T13:20:20.023Z,9.60
2023-03-10T13:22:56.859Z,13.57
2023-03-10T13:25:26.491Z,8.67
2023-03-10T13:27:57.904Z,9.00
2023-03-10T13:30:28.340Z,9.30
2023-03-10T13:32:59.117Z,8.35
2023-03-10T13:35:37.551Z,14.18
2023-03-10T13:38:11.444Z,10.83
2023-03-10T13:40:51.623Z,12.40
2023-03-10T13:43:40.904Z,8.98
2023-03-10T13:46:19.995Z,8.18
2023-03-10T13:48:51.552Z,10.02
2023-03-10T13:51:32.263Z,9.97
2023-03-10T13:54:22.338Z,9.95
2023-03-10T13:57:37.414Z,10.32
2023-03-10T14:00:10.246Z,11.77
2023-03-10T14:02:41.907Z,11.75
2023-03-10T14:05:46.732Z,14.20
2023-03-10T14:08:28.100Z,18.08
2023-03-10T14:11:31.405Z,11.20
2023-03-10T14:14:01.189Z,14.00
2023-03-10T14:16:49.077Z,11.93
2023-03-10T14:19:44.802Z,10.07
2023-03-10T14:22:45.118Z,13.27
2023-03-10T14:25:22.025Z,17.42
2023-03-10T14:28:13.335Z,9.85
2023-03-10T14:30:44.454Z,17.77
2023-03-10T14:33:14.386Z,12.07
2023-03-10T14:35:43.930Z,16.23
2023-03-10T14:38:12.550Z,18.42
2023-03-10T14:40:43.086Z,11.63
2023-03-10T14:43:34.170Z,13.05
2023-03-10T14:46:03.135Z,14.83
2023-03-10T14:48:35.103Z,11.68
2023-03-10T14:51:04.061Z,13.85
2023-03-10T14:53:33.879Z,10.93
2023-03-10T14:56:03.026Z,15.90
2023-03-10T14:58:49.059Z,16.30
2023-03-10T15:01:19.645Z,14.52
2023-03-10T15:03:49.770Z,15.20
2023-03-10T15:06:20.148Z,12.98
2023-03-10T15:08:48.221Z,16.25
2023-03-10T15:11:30.332Z,15.53
2023-03-10T15:14:05.676Z,13.43
2023-03-10T15:16:33.600Z,11.05
2023-03-10T15:19:01.455Z,12.60
2023-03-10T15:21:31.351Z,10.15
2023-03-10T15:24:00.451Z,14.83
2023-03-10T15:26:28.296Z,14.82
2023-03-10T15:28:56.177Z,15.70
2023-03-10T15:31:23.957Z,10.00
2023-03-10T15:33:51.796Z,10.02
2023-03-10T15:36:19.636Z,13.93
2023-03-10T15:38:47.530Z,11.15
2023-03-10T15:41:17.256Z,11.45
2023-03-10T15:43:45.240Z,11.95
2023-03-10T15:46:13.052Z,17.05
2023-03-10T15:48:40.843Z,12.43
2023-03-10T15:51:10.476Z,12.73
2023-03-10T15:53:38.439Z,11.65
2023-03-10T15:56:08.790Z,14.55
2023-03-10T15:58:36.601Z,11.95
2023-03-10T16:01:22.397Z,9.30
2023-03-10T16:03:50.313Z,9.82
2023-03-10T16:06:18.086Z,17.70
2023-03-10T16:08:47.339Z,9.30
2023-03-10T16:11:18.993Z,12.30
2023-03-10T16:13:49.953Z,9.83
2023-03-10T16:16:20.348Z,8.65
2023-03-10T16:18:48.672Z,6.45
2023-03-10T16:21:18.040Z,7.45
2023-03-10T16:23:46.998Z,7.22
2023-03-10T16:26:23.428Z,5.60
2023-03-10T16:28:53.707Z,6.88
2023-03-10T16:31:27.379Z,8.07
2023-03-10T16:33:58.243Z,6.60
2023-03-10T16:36:28.838Z,6.63
2023-03-10T16:38:57.169Z,8.13
2023-03-10T16:41:25.108Z,6.93
2023-03-10T16:43:54.979Z,7.80
2023-03-10T16:46:30.355Z,11.20
2023-03-10T16:49:00.027Z,7.50
2023-03-10T16:51:35.850Z,7.07
2023-03-10T16:54:06.763Z,6.50
2023-03-10T16:56:39.939Z,7.80
2023-03-10T16:59:07.946Z,7.90
2023-03-10T17:01:35.766Z,5.78
2023-03-10T17:04:03.715Z,9.30
2023-03-10T17:06:33.329Z,10.02
2023-03-10T17:09:02.365Z,9.40
2023-03-10T17:11:42.095Z,10.88
2023-03-10T17:14:14.457Z,7.45
2023-03-10T17:16:43.337Z,11.63
2023-03-10T17:19:14.490Z,11.45
2023-03-10T17:21:47.043Z,8.63
2023-03-10T17:24:18.165Z,10.35
2023-03-10T17:26:46.868Z,9.85
2023-03-10T17:29:15.230Z,6.87
2023-03-10T17:31:44.433Z,9.10
2023-03-10T17:34:14.010Z,10.25
2023-03-10T17:36:42.153Z,7.55
2023-03-10T17:39:16.117Z,6.82
2023-03-10T17:41:43.935Z,11.50
2023-03-10T17:44:11.835Z,8.52
2023-03-10T17:46:41.303Z,8.18
2023-03-10T17:49:14.564Z,10.45
2023-03-10T17:51:44.753Z,10.20
2023-03-10T17:54:20.340Z,11.57
2023-03-10T17:56:49.670Z,6.05
2023-03-10T17:59:18.390Z,6.78
2023-03-10T18:01:46.609Z,9.32
2023-03-10T18:04:14.853Z,7.13
2023-03-10T18:06:43.061Z,4.87
2023-03-10T18:09:14.972Z,7.53
2023-03-10T18:11:43.030Z,6.45
2023-03-10T18:14:11.024Z,10.48
2023-03-10T18:16:41.056Z,7.13
2023-03-10T18:19:11.275Z,7.90
2023-03-10T18:21:39.657Z,4.00
2023-03-10T18:24:09.146Z,5.15
2023-03-10T18:26:38.538Z,7.15
2023-03-10T18:29:06.340Z,7.30
2023-03-10T18:31:36.195Z,7.57
2023-03-10T18:34:05.367Z,6.75
2023-03-10T18:36:33.404Z,6.90
2023-03-10T18:39:04.170Z,8.15
2023-03-10T18:41:33.152Z,6.65
2023-03-10T18:44:01.168Z,9.73
2023-03-10T18:46:29.577Z,7.90
2023-03-10T18:48:57.527Z,9.48
2023-03-10T18:51:28.149Z,7.80
2023-03-10T18:53:56.497Z,7.30
2023-03-10T18:56:26.386Z,11.53
2023-03-10T18:58:54.286Z,10.45
2023-03-10T19:01:22.688Z,9.43
2023-03-10T19:03:50.760Z,8.75
2023-03-10T19:06:18.753Z,12.65
2023-03-10T19:08:46.832Z,8.07
2023-03-10T19:11:15.615Z,8.82
2023-03-10T19:13:45.476Z,10.00
2023-03-10T19:16:13.569Z,8.35
2023-03-10T19:18:41.396Z,10.23
2023-03-10T19:21:10.182Z,9.23
2023-03-10T19:23:38.273Z,10.48
2023-03-10T19:26:06.336Z,8.25
2023-03-10T19:28:34.190Z,8.13
2023-03-10T19:31:02.155Z,8.80
2023-03-10T19:33:29.919Z,7.97
2023-03-10T19:36:05.227Z,7.50
2023-03-10T19:38:35.718Z,8.75
2023-03-10T19:41:05.554Z,8.82
2023-03-10T19:43:33.951Z,9.38
2023-03-10T19:46:06.747Z,8.47
2023-03-10T19:48:35.375Z,10.68
2023-03-10T19:51:05.730Z,12.07
2023-03-10T19:53:37.160Z,8.65
2023-03-10T19:56:07.948Z,11.00
2023-03-10T19:58:38.552Z,12.77
2023-03-10T20:01:12.275Z,11.07
2023-03-10T20:03:40.336Z,10.73
2023-03-10T20:06:08.237Z,10.93
2023-03-10T20:08:38.273Z,9.55
2023-03-10T20:11:06.714Z,9.83
2023-03-10T20:13:36.441Z,9.93
2023-03-10T20:16:06.004Z,9.25
2023-03-10T20:18:33.868Z,8.82
2023-03-10T20:21:06.088Z,11.23
2023-03-10T20:23:34.709Z,13.00
2023-03-10T20:26:05.304Z,12.98
2023-03-10T20:28:34.706Z,9.10
2023-03-10T20:31:02.666Z,8.95
2023-03-10T20:33:30.989Z,8.43
2023-03-10T20:36:00.750Z,10.20
2023-03-10T20:38:28.640Z,11.07
2023-03-10T20:40:56.390Z,8.65
2023-03-10T20:43:24.598Z,12.20
2023-03-10T20:45:53.079Z,16.50
2023-03-10T20:48:20.968Z,16.50
2023-03-10T20:50:55.533Z,16.52
2023-03-10T20:53:23.764Z,12.80
2023-03-10T20:55:51.775Z,13.10
2023-03-10T20:58:19.764Z,16.40
2023-03-10T21:00:49.018Z,15.23
2023-03-10T21:03:17.828Z,12.43
2023-03-10T21:05:45.826Z,11.27
2023-03-10T21:08:14.514Z,15.75
2023-03-10T21:10:44.893Z,7.72
2023-03-10T21:13:13.354Z,8.60
2023-03-10T21:15:41.764Z,10.75
2023-03-10T21:18:09.717Z,11.02
2023-03-10T21:20:37.574Z,11.93
2023-03-10T21:23:05.812Z,8.70
2023-03-10T21:25:33.679Z,14.27
2023-03-10T21:28:02.423Z,10.00
2023-03-10T21:30:32.291Z,10.73
2023-03-10T21:33:00.538Z,10.80
2023-03-10T21:35:32.404Z,9.30
2023-03-10T21:38:00.758Z,7.93
2023-03-10T21:40:29.281Z,8.35
2023-03-10T21:42:57.372Z,9.05
2023-03-10T21:45:26.431Z,10.73
2023-03-10T21:47:54.292Z,8.30
2023-03-10T21:50:22.916Z,9.30
2023-03-10T21:52:51.237Z,8.30
2023-03-10T21:55:23.505Z,10.10
2023-03-10T21:57:51.993Z,9.00
2023-03-10T22:00:24.204Z,7.72
2023-03-10T22:02:53.639Z,8.47
2023-03-10T22:05:21.901Z,8.57
2023-03-10T22:07:50.383Z,8.75
2023-03-10T22:10:19.330Z,7.50
2023-03-10T22:12:47.273Z,7.88
2023-03-10T22:15:21.174Z,7.17
2023-03-10T22:17:49.534Z,3.92
2023-03-10T22:20:21.314Z,6.95
2023-03-10T22:22:49.380Z,6.05
2023-03-10T22:25:18.383Z,5.07
2023-03-10T22:27:50.720Z,7.23
2023-03-10T22:30:20.220Z,5.35
2023-03-10T22:32:48.798Z,6.85
2023-03-10T22:35:17.203Z,4.97
2023-03-10T22:37:45.191Z,3.50
2023-03-10T22:40:17.005Z,5.53
2023-03-10T22:42:46.117Z,4.13
2023-03-10T22:45:23.030Z,5.38
2023-03-10T22:47:54.210Z,7.70
2023-03-10T22:50:28.413Z,7.47
2023-03-10T22:52:56.546Z,7.43
2023-03-10T22:55:25.802Z,5.50
2023-03-10T22:57:54.186Z,9.00
2023-03-10T23:00:23.400Z,6.05
2023-03-10T23:02:54.230Z,8.85
2023-03-10T23:05:22.405Z,9.67
2023-03-10T23:07:51.039Z,6.35
2023-03-10T23:10:23.282Z,9.27
2023-03-10T23:12:52.513Z,11.18
2023-03-10T23:15:26.072Z,8.55
2023-03-10T23:17:58.101Z,9.10
2023-03-10T23:20:29.312Z,10.60
2023-03-10T23:22:59.320Z,7.97
2023-03-10T23:25:28.717Z,8.05
2023-03-10T23:27:57.074Z,10.35
2023-03-10T23:30:25.738Z,9.87
2023-03-10T23:32:54.464Z,7.45
2023-03-10T23:35:26.699Z,9.07
2023-03-10T23:37:54.920Z,11.57
2023-03-10T23:40:27.325Z,7.80
2023-03-10T23:42:57.757Z,11.87
2023-03-10T23:45:30.297Z,9.88
2023-03-10T23:48:01.766Z,6.60
2023-03-10T23:50:35.885Z,10.95
2023-03-10T23:53:05.531Z,7.32
2023-03-10T23:55:38.887Z,7.97
2023-03-10T23:58:08.914Z,5.20
